sensor_id;sensor_type;location;lat;lon;timestamp;P1;durP1;ratioP1;P2;durP2;ratioP2
6394;SDS011;3230;42.588;23.358;2023-03-20T00:00:55;11.07;;;3.58;;
6394;SDS011;3230;42.588;23.358;2023-03-20T00:03:22;8.82;;;4.03;;
6394;SDS011;3230;42.588;23.358;2023-03-20T00:05:47;9.07;;;4.70;;
6394;SDS011;3230;42.588;23.358;2023-03-20T00:08:14;11.68;;;6.40;;
6394;SDS011;3230;42.588;23.358;2023-03-20T00:10:41;13.50;;;6.60;;
6394;SDS011;3230;42.588;23.358;2023-03-20T00:13:19;8.93;;;4.88;;
6394;SDS011;3230;42.588;23.358;2023-03-20T00:15:48;7.13;;;3.92;;
6394;SDS011;3230;42.588;23.358;2023-03-20T00:18:15;6.80;;;3.80;;
6394;SDS011;3230;42.588;23.358;2023-03-20T00:20:47;4.55;;;3.20;;
6394;SDS011;3230;42.588;23.358;2023-03-20T00:23:14;4.03;;;2.60;;
6394;SDS011;3230;42.588;23.358;2023-03-20T00:25:41;4.07;;;2.60;;
6394;SDS011;3230;42.588;23.358;2023-03-20T00:31:01;6.38;;;2.92;;
6394;SDS011;3230;42.588;23.358;2023-03-20T00:33:28;3.45;;;2.40;;
6394;SDS011;3230;42.588;23.358;2023-03-20T00:35:55;4.13;;;2.45;;
6394;SDS011;3230;42.588;23.358;2023-03-20T00:38:22;2.20;;;2.00;;
6394;SDS011;3230;42.588;23.358;2023-03-20T00:40:48;2.87;;;2.20;;
6394;SDS011;3230;42.588;23.358;2023-03-20T00:43:14;4.20;;;2.20;;
6394;SDS011;3230;42.588;23.358;2023-03-20T00:45:40;3.30;;;2.53;;
6394;SDS011;3230;42.588;23.358;2023-03-20T00:48:07;5.25;;;2.33;;
6394;SDS011;3230;42.588;23.358;2023-03-20T00:50:37;4.28;;;2.50;;
6394;SDS011;3230;42.588;23.358;2023-03-20T00:53:02;4.33;;;2.47;;
6394;SDS011;3230;42.588;23.358;2023-03-20T00:55:28;11.90;;;6.30;;
6394;SDS011;3230;42.588;23.358;2023-03-20T00:57:55;7.93;;;3.72;;
6394;SDS011;3230;42.588;23.358;2023-03-20T01:02:51;3.17;;;2.70;;
6394;SDS011;3230;42.588;23.358;2023-03-20T01:05:18;18.10;;;2.88;;
6394;SDS011;3230;42.588;23.358;2023-03-20T01:07:44;4.55;;;2.25;;
6394;SDS011;3230;42.588;23.358;2023-03-20T01:10:10;4.05;;;2.20;;
6394;SDS011;3230;42.588;23.358;2023-03-20T01:12:40;6.55;;;2.50;;
6394;SDS011;3230;42.588;23.358;2023-03-20T01:15:31;5.55;;;3.10;;
6394;SDS011;3230;42.588;23.358;2023-03-20T01:17:57;5.38;;;2.95;;
6394;SDS011;3230;42.588;23.358;2023-03-20T01:20:27;5.10;;;3.00;;
6394;SDS011;3230;42.588;23.358;2023-03-20T01:22:54;6.75;;;2.90;;
6394;SDS011;3230;42.588;23.358;2023-03-20T01:25:20;3.00;;;2.70;;
6394;SDS011;3230;42.588;23.358;2023-03-20T01:27:48;4.50;;;2.83;;
6394;SDS011;3230;42.588;23.358;2023-03-20T01:30:17;5.85;;;2.88;;
6394;SDS011;3230;42.588;23.358;2023-03-20T01:32:44;3.40;;;2.75;;
6394;SDS011;3230;42.588;23.358;2023-03-20T01:35:12;5.65;;;3.35;;
6394;SDS011;3230;42.588;23.358;2023-03-20T01:37:39;6.68;;;4.00;;
6394;SDS011;3230;42.588;23.358;2023-03-20T01:40:11;9.27;;;4.23;;
6394;SDS011;3230;42.588;23.358;2023-03-20T01:42:47;6.43;;;4.03;;
6394;SDS011;3230;42.588;23.358;2023-03-20T01:45:15;6.73;;;3.47;;
6394;SDS011;3230;42.588;23.358;2023-03-20T01:47:45;6.40;;;2.80;;
6394;SDS011;3230;42.588;23.358;2023-03-20T01:50:19;3.78;;;2.60;;
6394;SDS011;3230;42.588;23.358;2023-03-20T01:52:52;4.40;;;2.50;;
6394;SDS011;3230;42.588;23.358;2023-03-20T01:55:22;4.43;;;2.40;;
6394;SDS011;3230;42.588;23.358;2023-03-20T01:57:49;3.95;;;2.22;;
6394;SDS011;3230;42.588;23.358;2023-03-20T02:00:17;3.25;;;2.25;;
6394;SDS011;3230;42.588;23.358;2023-03-20T02:02:44;3.50;;;2.00;;
6394;SDS011;3230;42.588;23.358;2023-03-20T02:05:12;3.85;;;2.50;;
6394;SDS011;3230;42.588;23.358;2023-03-20T02:07:41;5.40;;;2.70;;
6394;SDS011;3230;42.588;23.358;2023-03-20T02:10:14;12.00;;;2.60;;
6394;SDS011;3230;42.588;23.358;2023-03-20T02:12:40;4.93;;;2.25;;
6394;SDS011;3230;42.588;23.358;2023-03-20T02:15:07;7.65;;;4.30;;
6394;SDS011;3230;42.588;23.358;2023-03-20T02:17:33;7.45;;;4.35;;
6394;SDS011;3230;42.588;23.358;2023-03-20T02:20:09;5.43;;;3.30;;
6394;SDS011;3230;42.588;23.358;2023-03-20T02:45:26;2.95;;;2.60;;
6394;SDS011;3230;42.588;23.358;2023-03-20T02:48:09;5.40;;;3.45;;
6394;SDS011;3230;42.588;23.358;2023-03-20T02:53:39;4.47;;;2.80;;
6394;SDS011;3230;42.588;23.358;2023-03-20T02:58:51;3.80;;;2.45;;
6394;SDS011;3230;42.588;23.358;2023-03-20T03:01:20;2.30;;;2.10;;
6394;SDS011;3230;42.588;23.358;2023-03-20T03:03:55;3.50;;;2.05;;
6394;SDS011;3230;42.588;23.358;2023-03-20T03:06:31;4.97;;;2.40;;
6394;SDS011;3230;42.588;23.358;2023-03-20T03:09:02;3.40;;;2.13;;
6394;SDS011;3230;42.588;23.358;2023-03-20T03:11:33;4.05;;;2.70;;
6394;SDS011;3230;42.588;23.358;2023-03-20T03:14:02;4.03;;;2.33;;
6394;SDS011;3230;42.588;23.358;2023-03-20T03:16:29;3.17;;;2.20;;
6394;SDS011;3230;42.588;23.358;2023-03-20T03:21:38;2.78;;;2.22;;
6394;SDS011;3230;42.588;23.358;2023-03-20T03:24:04;2.25;;;2.00;;
6394;SDS011;3230;42.588;23.358;2023-03-20T03:26:31;4.80;;;2.15;;
6394;SDS011;3230;42.588;23.358;2023-03-20T03:29:12;3.80;;;1.95;;
6394;SDS011;3230;42.588;23.358;2023-03-20T03:31:42;3.05;;;2.10;;
6394;SDS011;3230;42.588;23.358;2023-03-20T03:34:13;2.42;;;1.92;;
6394;SDS011;3230;42.588;23.358;2023-03-20T03:37:25;2.95;;;2.10;;
6394;SDS011;3230;42.588;23.358;2023-03-20T03:42:43;5.00;;;2.38;;
6394;SDS011;3230;42.588;23.358;2023-03-20T03:45:18;5.25;;;2.75;;
6394;SDS011;3230;42.588;23.358;2023-03-20T03:49:07;3.40;;;2.45;;
6394;SDS011;3230;42.588;23.358;2023-03-20T03:51:10;5.53;;;2.22;;
6394;SDS011;3230;42.588;23.358;2023-03-20T03:53:40;3.78;;;2.35;;
6394;SDS011;3230;42.588;23.358;2023-03-20T03:56:12;4.03;;;3.00;;
6394;SDS011;3230;42.588;23.358;2023-03-20T03:58:47;4.65;;;2.40;;
6394;SDS011;3230;42.588;23.358;2023-03-20T04:01:16;6.22;;;3.15;;
6394;SDS011;3230;42.588;23.358;2023-03-20T04:03:53;9.85;;;3.20;;
6394;SDS011;3230;42.588;23.358;2023-03-20T04:06:22;5.25;;;2.22;;
6394;SDS011;3230;42.588;23.358;2023-03-20T04:08:50;2.38;;;2.13;;
6394;SDS011;3230;42.588;23.358;2023-03-20T04:11:16;3.70;;;2.20;;
6394;SDS011;3230;42.588;23.358;2023-03-20T04:13:47;3.55;;;2.45;;
6394;SDS011;3230;42.588;23.358;2023-03-20T04:16:14;4.20;;;2.70;;
6394;SDS011;3230;42.588;23.358;2023-03-20T04:18:41;4.45;;;2.90;;
6394;SDS011;3230;42.588;23.358;2023-03-20T04:21:07;4.00;;;2.00;;
6394;SDS011;3230;42.588;23.358;2023-03-20T04:23:33;2.83;;;2.28;;
6394;SDS011;3230;42.588;23.358;2023-03-20T04:25:59;3.72;;;2.67;;
6394;SDS011;3230;42.588;23.358;2023-03-20T04:28:25;3.67;;;2.30;;
6394;SDS011;3230;42.588;23.358;2023-03-20T04:30:52;5.37;;;2.53;;
6394;SDS011;3230;42.588;23.358;2023-03-20T04:33:22;3.08;;;1.90;;
6394;SDS011;3230;42.588;23.358;2023-03-20T04:35:48;3.45;;;2.28;;
6394;SDS011;3230;42.588;23.358;2023-03-20T04:38:13;4.53;;;2.70;;
6394;SDS011;3230;42.588;23.358;2023-03-20T04:40:39;5.85;;;2.30;;
6394;SDS011;3230;42.588;23.358;2023-03-20T04:43:05;4.20;;;2.60;;
6394;SDS011;3230;42.588;23.358;2023-03-20T04:45:31;3.23;;;2.17;;
6394;SDS011;3230;42.588;23.358;2023-03-20T04:47:56;2.10;;;1.90;;
6394;SDS011;3230;42.588;23.358;2023-03-20T04:50:22;2.70;;;1.87;;
6394;SDS011;3230;42.588;23.358;2023-03-20T04:52:47;1.80;;;1.70;;
6394;SDS011;3230;42.588;23.358;2023-03-20T04:55:13;2.37;;;1.80;;
6394;SDS011;3230;42.588;23.358;2023-03-20T04:57:39;3.30;;;1.90;;
6394;SDS011;3230;42.588;23.358;2023-03-20T05:00:05;3.37;;;1.90;;
6394;SDS011;3230;42.588;23.358;2023-03-20T05:02:31;57.70;;;16.38;;
6394;SDS011;3230;42.588;23.358;2023-03-20T05:04:56;33.30;;;9.00;;
6394;SDS011;3230;42.588;23.358;2023-03-20T05:07:22;13.37;;;4.70;;
6394;SDS011;3230;42.588;23.358;2023-03-20T05:09:47;11.00;;;5.10;;
6394;SDS011;3230;42.588;23.358;2023-03-20T05:12:12;27.80;;;7.80;;
6394;SDS011;3230;42.588;23.358;2023-03-20T05:14:38;32.80;;;10.00;;
6394;SDS011;3230;42.588;23.358;2023-03-20T05:17:03;12.97;;;4.63;;
6394;SDS011;3230;42.588;23.358;2023-03-20T05:19:29;10.00;;;5.00;;
6394;SDS011;3230;42.588;23.358;2023-03-20T05:21:54;8.43;;;4.00;;
6394;SDS011;3230;42.588;23.358;2023-03-20T05:24:20;21.63;;;7.80;;
6394;SDS011;3230;42.588;23.358;2023-03-20T05:26:45;16.60;;;7.03;;
6394;SDS011;3230;42.588;23.358;2023-03-20T05:29:11;22.97;;;8.60;;
6394;SDS011;3230;42.588;23.358;2023-03-20T05:31:36;27.73;;;9.80;;
6394;SDS011;3230;42.588;23.358;2023-03-20T05:34:02;23.13;;;8.20;;
6394;SDS011;3230;42.588;23.358;2023-03-20T05:36:27;13.77;;;5.63;;
6394;SDS011;3230;42.588;23.358;2023-03-20T05:38:53;25.10;;;9.50;;
6394;SDS011;3230;42.588;23.358;2023-03-20T05:41:18;27.67;;;10.30;;
6394;SDS011;3230;42.588;23.358;2023-03-20T05:43:43;31.90;;;11.20;;
6394;SDS011;3230;42.588;23.358;2023-03-20T05:46:09;39.90;;;14.60;;
6394;SDS011;3230;42.588;23.358;2023-03-20T05:48:34;50.13;;;11.80;;
6394;SDS011;3230;42.588;23.358;2023-03-20T05:51:01;37.90;;;9.67;;
6394;SDS011;3230;42.588;23.358;2023-03-20T05:53:26;16.37;;;6.80;;
6394;SDS011;3230;42.588;23.358;2023-03-20T05:55:52;17.93;;;10.07;;
6394;SDS011;3230;42.588;23.358;2023-03-20T05:58:17;29.93;;;12.17;;
6394;SDS011;3230;42.588;23.358;2023-03-20T06:00:43;34.63;;;14.30;;
6394;SDS011;3230;42.588;23.358;2023-03-20T06:03:08;28.23;;;14.73;;
6394;SDS011;3230;42.588;23.358;2023-03-20T06:05:34;30.40;;;13.40;;
6394;SDS011;3230;42.588;23.358;2023-03-20T06:08:00;28.27;;;9.13;;
6394;SDS011;3230;42.588;23.358;2023-03-20T06:10:26;19.33;;;10.00;;
6394;SDS011;3230;42.588;23.358;2023-03-20T06:12:52;34.27;;;17.13;;
6394;SDS011;3230;42.588;23.358;2023-03-20T06:15:18;41.33;;;20.37;;
6394;SDS011;3230;42.588;23.358;2023-03-20T06:17:43;35.10;;;17.07;;
6394;SDS011;3230;42.588;23.358;2023-03-20T06:20:09;31.33;;;17.00;;
6394;SDS011;3230;42.588;23.358;2023-03-20T06:22:35;73.23;;;43.73;;
6394;SDS011;3230;42.588;23.358;2023-03-20T06:25:00;19.93;;;12.63;;
6394;SDS011;3230;42.588;23.358;2023-03-20T06:27:26;27.50;;;14.20;;
6394;SDS011;3230;42.588;23.358;2023-03-20T06:29:51;30.93;;;14.50;;
6394;SDS011;3230;42.588;23.358;2023-03-20T06:32:17;18.47;;;11.50;;
6394;SDS011;3230;42.588;23.358;2023-03-20T06:34:42;19.87;;;11.73;;
6394;SDS011;3230;42.588;23.358;2023-03-20T06:37:08;16.87;;;10.50;;
6394;SDS011;3230;42.588;23.358;2023-03-20T06:39:34;14.67;;;8.97;;
6394;SDS011;3230;42.588;23.358;2023-03-20T06:42:00;14.40;;;8.67;;
6394;SDS011;3230;42.588;23.358;2023-03-20T06:44:26;29.20;;;11.00;;
6394;SDS011;3230;42.588;23.358;2023-03-20T06:46:51;8.50;;;5.60;;
6394;SDS011;3230;42.588;23.358;2023-03-20T06:49:17;10.27;;;5.83;;
6394;SDS011;3230;42.588;23.358;2023-03-20T06:51:42;16.53;;;6.40;;
6394;SDS011;3230;42.588;23.358;2023-03-20T06:54:09;13.00;;;6.63;;
6394;SDS011;3230;42.588;23.358;2023-03-20T06:56:35;8.53;;;6.17;;
6394;SDS011;3230;42.588;23.358;2023-03-20T06:59:00;10.83;;;7.00;;
6394;SDS011;3230;42.588;23.358;2023-03-20T07:01:25;7.97;;;5.90;;
6394;SDS011;3230;42.588;23.358;2023-03-20T07:03:52;22.23;;;6.40;;
6394;SDS011;3230;42.588;23.358;2023-03-20T07:06:17;10.90;;;6.00;;
6394;SDS011;3230;42.588;23.358;2023-03-20T07:08:43;8.67;;;4.90;;
6394;SDS011;3230;42.588;23.358;2023-03-20T07:11:09;8.93;;;5.30;;
6394;SDS011;3230;42.588;23.358;2023-03-20T07:13:35;8.93;;;6.30;;
6394;SDS011;3230;42.588;23.358;2023-03-20T07:16:02;13.07;;;7.00;;
6394;SDS011;3230;42.588;23.358;2023-03-20T07:18:28;14.30;;;9.50;;
6394;SDS011;3230;42.588;23.358;2023-03-20T07:20:57;15.73;;;9.93;;
6394;SDS011;3230;42.588;23.358;2023-03-20T07:23:26;18.93;;;12.13;;
6394;SDS011;3230;42.588;23.358;2023-03-20T07:25:53;12.70;;;7.60;;
6394;SDS011;3230;42.588;23.358;2023-03-20T07:28:19;9.77;;;5.90;;
6394;SDS011;3230;42.588;23.358;2023-03-20T07:30:44;9.67;;;5.67;;
6394;SDS011;3230;42.588;23.358;2023-03-20T07:33:10;7.90;;;5.00;;
6394;SDS011;3230;42.588;23.358;2023-03-20T07:35:35;11.33;;;5.40;;
6394;SDS011;3230;42.588;23.358;2023-03-20T07:38:01;10.00;;;5.77;;
6394;SDS011;3230;42.588;23.358;2023-03-20T07:40:26;9.80;;;5.93;;
6394;SDS011;3230;42.588;23.358;2023-03-20T07:42:52;8.50;;;5.10;;
6394;SDS011;3230;42.588;23.358;2023-03-20T07:45:17;7.53;;;4.80;;
6394;SDS011;3230;42.588;23.358;2023-03-20T07:47:43;6.80;;;4.63;;
6394;SDS011;3230;42.588;23.358;2023-03-20T07:50:10;7.10;;;4.70;;
6394;SDS011;3230;42.588;23.358;2023-03-20T07:52:36;9.77;;;5.17;;
6394;SDS011;3230;42.588;23.358;2023-03-20T07:55:01;9.93;;;5.17;;
6394;SDS011;3230;42.588;23.358;2023-03-20T07:57:27;12.40;;;6.17;;
6394;SDS011;3230;42.588;23.358;2023-03-20T07:59:52;10.17;;;5.97;;
6394;SDS011;3230;42.588;23.358;2023-03-20T08:02:18;9.23;;;5.80;;
6394;SDS011;3230;42.588;23.358;2023-03-20T08:04:43;11.73;;;6.07;;
6394;SDS011;3230;42.588;23.358;2023-03-20T08:07:10;17.07;;;6.90;;
6394;SDS011;3230;42.588;23.358;2023-03-20T08:09:36;16.27;;;7.50;;
6394;SDS011;3230;42.588;23.358;2023-03-20T08:12:02;16.60;;;8.40;;
6394;SDS011;3230;42.588;23.358;2023-03-20T08:14:30;15.77;;;7.90;;
6394;SDS011;3230;42.588;23.358;2023-03-20T08:16:56;13.80;;;8.40;;
6394;SDS011;3230;42.588;23.358;2023-03-20T08:19:22;19.80;;;8.30;;
6394;SDS011;3230;42.588;23.358;2023-03-20T08:21:47;19.90;;;8.30;;
6394;SDS011;3230;42.588;23.358;2023-03-20T08:24:13;17.60;;;7.87;;
6394;SDS011;3230;42.588;23.358;2023-03-20T08:26:39;17.00;;;9.07;;
6394;SDS011;3230;42.588;23.358;2023-03-20T08:29:05;17.53;;;8.43;;
6394;SDS011;3230;42.588;23.358;2023-03-20T08:31:31;15.77;;;8.70;;
6394;SDS011;3230;42.588;23.358;2023-03-20T08:33:57;13.77;;;7.93;;
6394;SDS011;3230;42.588;23.358;2023-03-20T08:36:22;13.97;;;8.80;;
6394;SDS011;3230;42.588;23.358;2023-03-20T08:38:48;17.63;;;8.43;;
6394;SDS011;3230;42.588;23.358;2023-03-20T08:41:14;17.93;;;7.87;;
6394;SDS011;3230;42.588;23.358;2023-03-20T08:43:41;16.20;;;8.30;;
6394;SDS011;3230;42.588;23.358;2023-03-20T08:46:06;17.37;;;7.80;;
6394;SDS011;3230;42.588;23.358;2023-03-20T08:48:32;11.10;;;7.03;;
6394;SDS011;3230;42.588;23.358;2023-03-20T08:50:57;12.30;;;8.40;;
6394;SDS011;3230;42.588;23.358;2023-03-20T08:53:23;11.17;;;7.43;;
6394;SDS011;3230;42.588;23.358;2023-03-20T08:55:49;14.20;;;7.73;;
6394;SDS011;3230;42.588;23.358;2023-03-20T08:58:15;11.70;;;7.67;;
6394;SDS011;3230;42.588;23.358;2023-03-20T09:00:42;11.77;;;6.60;;
6394;SDS011;3230;42.588;23.358;2023-03-20T09:03:11;14.00;;;6.90;;
6394;SDS011;3230;42.588;23.358;2023-03-20T09:05:45;12.97;;;7.80;;
6394;SDS011;3230;42.588;23.358;2023-03-20T09:08:11;14.17;;;7.90;;
6394;SDS011;3230;42.588;23.358;2023-03-20T09:10:37;12.17;;;8.00;;
6394;SDS011;3230;42.588;23.358;2023-03-20T09:13:03;17.40;;;8.27;;
6394;SDS011;3230;42.588;23.358;2023-03-20T09:15:28;15.00;;;7.63;;
6394;SDS011;3230;42.588;23.358;2023-03-20T09:17:54;16.00;;;8.10;;
6394;SDS011;3230;42.588;23.358;2023-03-20T09:20:19;19.27;;;8.53;;
6394;SDS011;3230;42.588;23.358;2023-03-20T09:22:45;19.53;;;8.40;;
6394;SDS011;3230;42.588;23.358;2023-03-20T09:25:11;17.77;;;9.63;;
6394;SDS011;3230;42.588;23.358;2023-03-20T09:27:37;19.97;;;9.10;;
6394;SDS011;3230;42.588;23.358;2023-03-20T09:30:04;17.27;;;9.30;;
6394;SDS011;3230;42.588;23.358;2023-03-20T09:32:31;20.47;;;9.60;;
6394;SDS011;3230;42.588;23.358;2023-03-20T09:34:57;18.47;;;9.63;;
6394;SDS011;3230;42.588;23.358;2023-03-20T09:37:23;19.40;;;9.30;;
6394;SDS011;3230;42.588;23.358;2023-03-20T09:39:48;19.60;;;10.03;;
6394;SDS011;3230;42.588;23.358;2023-03-20T09:42:29;19.57;;;9.60;;
6394;SDS011;3230;42.588;23.358;2023-03-20T09:53:12;15.87;;;9.93;;
6394;SDS011;3230;42.588;23.358;2023-03-20T09:55:40;23.53;;;10.93;;
6394;SDS011;3230;42.588;23.358;2023-03-20T10:01:16;15.80;;;10.17;;
6394;SDS011;3230;42.588;23.358;2023-03-20T10:06:24;20.57;;;9.60;;
6394;SDS011;3230;42.588;23.358;2023-03-20T10:08:50;16.73;;;9.57;;
6394;SDS011;3230;42.588;23.358;2023-03-20T10:14:06;19.83;;;8.80;;
6394;SDS011;3230;42.588;23.358;2023-03-20T10:19:20;12.57;;;6.47;;
6394;SDS011;3230;42.588;23.358;2023-03-20T10:21:50;18.30;;;8.40;;
6394;SDS011;3230;42.588;23.358;2023-03-20T10:24:43;15.43;;;8.50;;
6394;SDS011;3230;42.588;23.358;2023-03-20T10:27:20;15.37;;;8.70;;
6394;SDS011;3230;42.588;23.358;2023-03-20T10:29:51;15.10;;;7.90;;
6394;SDS011;3230;42.588;23.358;2023-03-20T10:32:41;13.30;;;6.70;;
6394;SDS011;3230;42.588;23.358;2023-03-20T10:40:32;12.33;;;6.37;;
6394;SDS011;3230;42.588;23.358;2023-03-20T10:43:02;12.30;;;6.47;;
6394;SDS011;3230;42.588;23.358;2023-03-20T10:46:25;15.70;;;6.03;;
6394;SDS011;3230;42.588;23.358;2023-03-20T10:48:33;14.43;;;6.20;;
6394;SDS011;3230;42.588;23.358;2023-03-20T10:51:03;10.50;;;5.60;;
6394;SDS011;3230;42.588;23.358;2023-03-20T10:53:33;12.20;;;5.70;;
6394;SDS011;3230;42.588;23.358;2023-03-20T10:56:09;9.73;;;5.83;;
6394;SDS011;3230;42.588;23.358;2023-03-20T10:58:39;16.23;;;5.90;;
6394;SDS011;3230;42.588;23.358;2023-03-20T11:01:08;8.53;;;5.23;;
6394;SDS011;3230;42.588;23.358;2023-03-20T11:03:34;9.30;;;5.43;;
6394;SDS011;3230;42.588;23.358;2023-03-20T11:06:23;12.13;;;6.60;;
6394;SDS011;3230;42.588;23.358;2023-03-20T11:08:53;12.90;;;5.50;;
6394;SDS011;3230;42.588;23.358;2023-03-20T11:11:22;7.00;;;4.63;;
6394;SDS011;3230;42.588;23.358;2023-03-20T11:13:52;11.93;;;5.20;;
6394;SDS011;3230;42.588;23.358;2023-03-20T11:16:22;10.73;;;5.40;;
6394;SDS011;3230;42.588;23.358;2023-03-20T11:18:50;10.37;;;5.63;;
6394;SDS011;3230;42.588;23.358;2023-03-20T11:23:51;12.67;;;5.40;;
6394;SDS011;3230;42.588;23.358;2023-03-20T11:26:18;9.40;;;6.07;;
6394;SDS011;3230;42.588;23.358;2023-03-20T11:28:56;13.40;;;6.20;;
6394;SDS011;3230;42.588;23.358;2023-03-20T11:31:32;11.93;;;6.30;;
6394;SDS011;3230;42.588;23.358;2023-03-20T11:36:29;13.60;;;5.90;;
6394;SDS011;3230;42.588;23.358;2023-03-20T11:39:43;10.13;;;5.80;;
6394;SDS011;3230;42.588;23.358;2023-03-20T11:41:52;22.83;;;7.30;;
6394;SDS011;3230;42.588;23.358;2023-03-20T11:46:56;13.57;;;7.50;;
6394;SDS011;3230;42.588;23.358;2023-03-20T11:49:24;13.03;;;7.67;;
6394;SDS011;3230;42.588;23.358;2023-03-20T11:51:51;11.60;;;7.23;;
6394;SDS011;3230;42.588;23.358;2023-03-20T11:54:19;15.17;;;7.90;;
6394;SDS011;3230;42.588;23.358;2023-03-20T11:57:05;13.70;;;7.90;;
6394;SDS011;3230;42.588;23.358;2023-03-20T11:59:31;14.77;;;7.93;;
6394;SDS011;3230;42.588;23.358;2023-03-20T12:01:59;16.03;;;8.23;;
6394;SDS011;3230;42.588;23.358;2023-03-20T12:04:30;16.30;;;7.83;;
6394;SDS011;3230;42.588;23.358;2023-03-20T12:07:24;15.10;;;8.20;;
6394;SDS011;3230;42.588;23.358;2023-03-20T12:10:06;13.47;;;8.53;;
6394;SDS011;3230;42.588;23.358;2023-03-20T12:12:41;20.80;;;9.40;;
6394;SDS011;3230;42.588;23.358;2023-03-20T12:15:39;23.63;;;8.60;;
6394;SDS011;3230;42.588;23.358;2023-03-20T12:26:35;20.43;;;8.07;;
6394;SDS011;3230;42.588;23.358;2023-03-20T12:31:45;13.70;;;8.63;;
6394;SDS011;3230;42.588;23.358;2023-03-20T12:34:31;15.33;;;8.47;;
6394;SDS011;3230;42.588;23.358;2023-03-20T12:37:01;13.10;;;7.70;;
6394;SDS011;3230;42.588;23.358;2023-03-20T12:39:30;14.00;;;8.13;;
6394;SDS011;3230;42.588;23.358;2023-03-20T13:01:50;13.47;;;8.17;;
6394;SDS011;3230;42.588;23.358;2023-03-20T13:14:51;13.93;;;7.50;;
6394;SDS011;3230;42.588;23.358;2023-03-20T13:17:49;16.33;;;8.73;;
6394;SDS011;3230;42.588;23.358;2023-03-20T13:20:27;13.40;;;7.73;;
6394;SDS011;3230;42.588;23.358;2023-03-20T13:22:58;14.93;;;8.60;;
6394;SDS011;3230;42.588;23.358;2023-03-20T13:25:34;13.10;;;7.73;;
6394;SDS011;3230;42.588;23.358;2023-03-20T13:31:30;17.77;;;7.50;;
6394;SDS011;3230;42.588;23.358;2023-03-20T13:34:32;12.50;;;7.93;;
6394;SDS011;3230;42.588;23.358;2023-03-20T13:37:07;15.00;;;7.20;;
6394;SDS011;3230;42.588;23.358;2023-03-20T13:42:19;14.63;;;6.73;;
6394;SDS011;3230;42.588;23.358;2023-03-20T13:44:47;20.27;;;7.63;;
6394;SDS011;3230;42.588;23.358;2023-03-20T13:47:19;9.77;;;6.60;;
6394;SDS011;3230;42.588;23.358;2023-03-20T13:49:56;14.03;;;7.03;;
6394;SDS011;3230;42.588;23.358;2023-03-20T13:52:41;16.60;;;7.17;;
6394;SDS011;3230;42.588;23.358;2023-03-20T13:55:23;12.63;;;6.27;;
6394;SDS011;3230;42.588;23.358;2023-03-20T14:01:01;10.53;;;6.07;;
6394;SDS011;3230;42.588;23.358;2023-03-20T14:03:37;11.00;;;5.67;;
6394;SDS011;3230;42.588;23.358;2023-03-20T14:08:55;9.23;;;5.97;;
6394;SDS011;3230;42.588;23.358;2023-03-20T14:13:54;15.40;;;6.67;;
6394;SDS011;3230;42.588;23.358;2023-03-20T14:16:22;8.47;;;5.23;;
6394;SDS011;3230;42.588;23.358;2023-03-20T14:18:48;14.23;;;5.80;;
6394;SDS011;3230;42.588;23.358;2023-03-20T14:21:27;12.13;;;6.60;;
6394;SDS011;3230;42.588;23.358;2023-03-20T14:23:59;13.07;;;6.20;;
6394;SDS011;3230;42.588;23.358;2023-03-20T14:26:29;12.63;;;5.63;;
6394;SDS011;3230;42.588;23.358;2023-03-20T14:31:34;13.67;;;5.30;;
6394;SDS011;3230;42.588;23.358;2023-03-20T14:47:42;13.27;;;5.00;;
6394;SDS011;3230;42.588;23.358;2023-03-20T14:50:31;6.83;;;4.40;;
6394;SDS011;3230;42.588;23.358;2023-03-20T14:53:35;9.77;;;5.10;;
6394;SDS011;3230;42.588;23.358;2023-03-20T15:01:05;12.40;;;5.10;;
6394;SDS011;3230;42.588;23.358;2023-03-20T15:03:33;9.13;;;4.83;;
6394;SDS011;3230;42.588;23.358;2023-03-20T15:06:00;8.40;;;4.70;;
6394;SDS011;3230;42.588;23.358;2023-03-20T15:08:33;9.53;;;4.63;;
6394;SDS011;3230;42.588;23.358;2023-03-20T15:11:04;16.40;;;6.27;;
6394;SDS011;3230;42.588;23.358;2023-03-20T15:13:32;11.63;;;4.60;;
6394;SDS011;3230;42.588;23.358;2023-03-20T15:16:03;6.53;;;4.40;;
6394;SDS011;3230;42.588;23.358;2023-03-20T15:18:44;10.70;;;4.80;;
6394;SDS011;3230;42.588;23.358;2023-03-20T15:21:15;10.27;;;5.13;;
6394;SDS011;3230;42.588;23.358;2023-03-20T15:23:46;12.60;;;4.87;;
6394;SDS011;3230;42.588;23.358;2023-03-20T15:26:12;14.90;;;6.13;;
6394;SDS011;3230;42.588;23.358;2023-03-20T15:28:42;16.60;;;5.83;;
6394;SDS011;3230;42.588;23.358;2023-03-20T15:33:50;14.53;;;5.53;;
6394;SDS011;3230;42.588;23.358;2023-03-20T15:36:16;17.30;;;6.60;;
6394;SDS011;3230;42.588;23.358;2023-03-20T15:38:45;26.40;;;8.60;;
6394;SDS011;3230;42.588;23.358;2023-03-20T15:41:24;23.10;;;8.63;;
6394;SDS011;3230;42.588;23.358;2023-03-20T15:49:18;34.30;;;8.50;;
6394;SDS011;3230;42.588;23.358;2023-03-20T15:51:45;16.03;;;7.27;;
6394;SDS011;3230;42.588;23.358;2023-03-20T15:54:12;13.90;;;7.87;;
6394;SDS011;3230;42.588;23.358;2023-03-20T15:56:42;23.40;;;10.20;;
6394;SDS011;3230;42.588;23.358;2023-03-20T15:59:13;24.83;;;13.73;;
6394;SDS011;3230;42.588;23.358;2023-03-20T16:01:42;30.10;;;17.00;;
6394;SDS011;3230;42.588;23.358;2023-03-20T16:04:11;28.37;;;15.73;;
6394;SDS011;3230;42.588;23.358;2023-03-20T16:10:11;39.07;;;16.60;;
6394;SDS011;3230;42.588;23.358;2023-03-20T16:12:44;25.23;;;14.80;;
6394;SDS011;3230;42.588;23.358;2023-03-20T16:15:20;21.93;;;12.93;;
6394;SDS011;3230;42.588;23.358;2023-03-20T16:17:50;31.80;;;14.90;;
6394;SDS011;3230;42.588;23.358;2023-03-20T16:20:18;32.53;;;16.93;;
6394;SDS011;3230;42.588;23.358;2023-03-20T16:22:43;34.67;;;14.70;;
6394;SDS011;3230;42.588;23.358;2023-03-20T16:25:14;31.93;;;16.67;;
6394;SDS011;3230;42.588;23.358;2023-03-20T16:27:41;30.53;;;16.10;;
6394;SDS011;3230;42.588;23.358;2023-03-20T16:30:17;24.30;;;12.23;;
6394;SDS011;3230;42.588;23.358;2023-03-20T16:32:46;45.27;;;14.20;;
6394;SDS011;3230;42.588;23.358;2023-03-20T16:35:19;36.13;;;16.00;;
6394;SDS011;3230;42.588;23.358;2023-03-20T16:37:59;41.53;;;19.10;;
6394;SDS011;3230;42.588;23.358;2023-03-20T16:42:51;46.50;;;20.50;;
6394;SDS011;3230;42.588;23.358;2023-03-20T16:45:20;42.80;;;19.50;;
6394;SDS011;3230;42.588;23.358;2023-03-20T16:47:48;52.80;;;22.87;;
6394;SDS011;3230;42.588;23.358;2023-03-20T16:52:55;37.17;;;16.20;;
6394;SDS011;3230;42.588;23.358;2023-03-20T16:55:23;24.23;;;13.03;;
6394;SDS011;3230;42.588;23.358;2023-03-20T16:57:54;18.27;;;9.97;;
6394;SDS011;3230;42.588;23.358;2023-03-20T17:00:40;73.03;;;13.60;;
6394;SDS011;3230;42.588;23.358;2023-03-20T17:03:12;23.13;;;8.33;;
6394;SDS011;3230;42.588;23.358;2023-03-20T17:05:44;15.53;;;8.70;;
6394;SDS011;3230;42.588;23.358;2023-03-20T17:08:13;26.47;;;10.30;;
6394;SDS011;3230;42.588;23.358;2023-03-20T17:10:43;25.93;;;12.33;;
6394;SDS011;3230;42.588;23.358;2023-03-20T17:13:20;34.37;;;16.80;;
6394;SDS011;3230;42.588;23.358;2023-03-20T17:15:45;50.93;;;22.23;;
6394;SDS011;3230;42.588;23.358;2023-03-20T17:18:11;43.67;;;17.53;;
6394;SDS011;3230;42.588;23.358;2023-03-20T17:20:37;33.93;;;14.87;;
6394;SDS011;3230;42.588;23.358;2023-03-20T17:23:03;55.83;;;18.87;;
6394;SDS011;3230;42.588;23.358;2023-03-20T17:25:28;71.10;;;26.57;;
6394;SDS011;3230;42.588;23.358;2023-03-20T17:27:54;73.40;;;29.63;;
6394;SDS011;3230;42.588;23.358;2023-03-20T17:30:23;76.87;;;30.10;;
6394;SDS011;3230;42.588;23.358;2023-03-20T17:32:49;72.73;;;29.63;;
6394;SDS011;3230;42.588;23.358;2023-03-20T17:35:15;59.33;;;23.93;;
6394;SDS011;3230;42.588;23.358;2023-03-20T17:37:41;38.47;;;18.20;;
6394;SDS011;3230;42.588;23.358;2023-03-20T17:40:10;32.23;;;15.10;;
6394;SDS011;3230;42.588;23.358;2023-03-20T17:42:41;20.50;;;10.60;;
6394;SDS011;3230;42.588;23.358;2023-03-20T17:45:07;20.67;;;9.90;;
6394;SDS011;3230;42.588;23.358;2023-03-20T17:47:33;20.27;;;10.63;;
6394;SDS011;3230;42.588;23.358;2023-03-20T17:49:59;14.97;;;8.90;;